Terminal Aerodrome Forecast
Issued by NWS

Home | Current Version | Previous Version | Text Only | Print | Product List | Glossary On
Versions: 1 2 3 4 5 6 7 8 9 10 11 12
173
FTUS46 KSGX 191730
TAFONT
TAF
KONT 191730Z 1918/2024 VRB04KT 4SM BR FEW250
     FM192100 26011G18KT P6SM FEW200
     FM200400 VRB04KT P6SM FEW010
     FM200700 VRB04KT P6SM BKN015
     FM201100 VRB05KT P6SM BKN020
     FM201600 21011KT P6SM SCT030
     FM202000 25011KT P6SM SCT035=

USA.gov is the U.S. government's official web portal to all federal, state and local government web resources and services.